< < Back
Terminal Aerodrome Forecast


Current Version              Previous Versions:   1  2  3  4  5  6  7  8  9  

Terminal Aerodrome Forecast

618
FTUS44 KMOB 281124
TAFMOB
TAF
KMOB 281124Z 2812/2912 03005KT P6SM FEW030 SCT150 BKN250
     FM281500 14005KT P6SM VCTS SCT035CB BKN150
     FM281800 18009KT 6SM -TSRA BKN040CB
      TEMPO 2820/2824 VRB15G25KT 3SM TSRA BKN030CB
     FM290100 02003KT P6SM VCTS BKN050CB=

Latest METAR

027
SAUS80 KWBC 281100 RRB
MTRMOB
METAR KMOB 281056Z 03004KT 7SM FEW030 SCT150 BKN250 23/22 A3001 RMK AO2
SLP157 T02330217


USA.gov is the U.S. government's official web portal to all federal, state and local government web resources and services.